Time;durP1;ratioP1;P1;durP2;ratioP2;P2;SDS_P1;SDS_P2;PMS_P1;PMS_P2;Temp;Humidity;BMP_temperature;BMP_pressure;BME280_temperature;BME280_humidity;BME280_pressure;Samples;Min_cycle;Max_cycle;Signal;HPM_P1;HPM_P2
2023/10/25 00:00:04;;;;;;;3.70;1.98;;;13.80;99.50;;;;;;10408821;28;20480;-64
2023/10/25 00:05:05;;;;;;;4.00;2.10;;;13.80;99.50;;;;;;10430134;28;20816;-65
2023/10/25 00:10:06;;;;;;;2.57;1.90;;;13.80;99.50;;;;;;10408838;28;20820;-65
2023/10/25 00:15:07;;;;;;;4.47;2.00;;;13.70;99.50;;;;;;10412084;28;20391;-63
2023/10/25 00:20:08;;;;;;;3.90;2.10;;;13.70;99.50;;;;;;10409198;28;20403;-65
2023/10/25 00:25:08;;;;;;;3.20;2.10;;;13.70;99.50;;;;;;10413699;28;20397;-65
2023/10/25 00:30:10;;;;;;;3.88;1.92;;;13.70;99.40;;;;;;10408371;28;20414;-65
2023/10/25 00:35:10;;;;;;;2.33;1.80;;;13.70;99.40;;;;;;10410356;28;20402;-65
2023/10/25 00:40:11;;;;;;;5.37;2.07;;;13.70;99.40;;;;;;10416244;28;20406;-65
2023/10/25 00:45:13;;;;;;;3.88;2.28;;;13.70;99.40;;;;;;10405885;28;20406;-64
2023/10/25 00:50:17;;;;;;;3.25;2.00;;;13.70;99.40;;;;;;10407819;28;20423;-65
2023/10/25 00:55:17;;;;;;;4.07;1.95;;;13.70;99.40;;;;;;10414122;28;20409;-64
2023/10/25 01:00:18;;;;;;;3.57;1.80;;;13.60;99.40;;;;;;10418241;28;20410;-65
2023/10/25 01:05:19;;;;;;;3.00;1.98;;;13.60;99.40;;;;;;10414545;28;20549;-64
2023/10/25 01:10:20;;;;;;;3.23;1.93;;;13.60;99.40;;;;;;10408177;28;20423;-65
2023/10/25 01:15:22;;;;;;;3.70;2.10;;;13.60;99.30;;;;;;10412114;28;20395;-64
2023/10/25 01:20:23;;;;;;;3.80;1.90;;;13.60;99.30;;;;;;10408167;28;20430;-66
2023/10/25 01:25:23;;;;;;;4.90;2.27;;;13.60;99.30;;;;;;10405627;28;20830;-66
2023/10/25 01:30:25;;;;;;;3.47;1.90;;;13.60;99.30;;;;;;10414498;28;20434;-65
2023/10/25 01:35:25;;;;;;;2.87;2.00;;;13.60;99.30;;;;;;10404471;28;20434;-64
2023/10/25 01:40:26;;;;;;;3.83;1.93;;;13.60;99.30;;;;;;10415828;28;20486;-66
2023/10/25 01:45:27;;;;;;;3.85;2.15;;;13.60;99.30;;;;;;10416464;28;20440;-64
2023/10/25 01:50:27;;;;;;;3.60;2.10;;;13.50;99.30;;;;;;10414578;28;20504;-65
2023/10/25 01:55:28;;;;;;;4.43;1.93;;;13.50;99.20;;;;;;10410385;28;20401;-64
2023/10/25 02:00:28;;;;;;;5.05;2.55;;;13.60;99.30;;;;;;10408702;28;20760;-65
2023/10/25 02:05:31;;;;;;;3.60;2.10;;;14.10;99.40;;;;;;10418683;28;20851;-65
2023/10/25 02:10:32;;;;;;;3.70;2.20;;;13.50;99.20;;;;;;10405863;28;20954;-65
2023/10/25 02:15:32;;;;;;;3.63;2.00;;;13.50;99.20;;;;;;10409909;28;20459;-65
2023/10/25 02:20:33;;;;;;;4.97;2.30;;;13.50;99.20;;;;;;10406479;28;20457;-66
2023/10/25 02:25:34;;;;;;;4.23;2.77;;;13.50;99.10;;;;;;10408327;28;21076;-64
2023/10/25 02:30:35;;;;;;;3.33;2.20;;;13.40;99.10;;;;;;10412317;28;20500;-65
2023/10/25 02:35:36;;;;;;;4.35;2.47;;;13.40;99.10;;;;;;10397352;28;20403;-65
2023/10/25 02:40:37;;;;;;;4.60;2.55;;;13.40;99.10;;;;;;10405916;28;20414;-65
2023/10/25 02:45:37;;;;;;;4.60;2.50;;;13.40;99.10;;;;;;10402056;28;20910;-65
2023/10/25 02:50:38;;;;;;;4.67;2.60;;;13.40;99.00;;;;;;10393322;28;20409;-64
2023/10/25 02:55:38;;;;;;;6.07;2.63;;;13.40;99.00;;;;;;10384230;28;20423;-66
2023/10/25 03:00:39;;;;;;;3.30;2.30;;;13.70;99.10;;;;;;10397528;28;20445;-64
2023/10/25 03:05:40;;;;;;;3.90;2.43;;;13.40;99.30;;;;;;10393485;28;20423;-65
2023/10/25 03:10:40;;;;;;;5.38;2.63;;;13.90;99.10;;;;;;10393112;28;20489;-64
2023/10/25 03:15:41;;;;;;;4.53;2.80;;;13.50;99.00;;;;;;10393282;28;20405;-64
2023/10/25 03:20:41;;;;;;;4.40;2.90;;;13.40;99.00;;;;;;10405483;28;20468;-66
2023/10/25 03:25:42;;;;;;;5.13;2.63;;;13.30;98.90;;;;;;10422682;28;21210;-66
2023/10/25 03:30:42;;;;;;;5.43;2.73;;;13.30;98.90;;;;;;10402684;28;20421;-64
2023/10/25 03:35:53;;;;;;;4.17;2.50;;;13.30;98.90;;;;;;10400601;28;20531;-62
2023/10/25 03:41:05;;;;;;;4.25;2.70;;;13.30;98.90;;;;;;10400474;28;20519;-63
2023/10/25 03:46:07;;;;;;;4.57;2.70;;;13.30;98.80;;;;;;10407693;28;20472;-65
2023/10/25 03:51:10;;;;;;;5.63;2.58;;;13.30;98.90;;;;;;10401194;28;20411;-64
2023/10/25 03:56:10;;;;;;;4.63;2.50;;;13.30;98.80;;;;;;10407443;28;20403;-66
2023/10/25 04:01:11;;;;;;;4.03;2.70;;;13.30;98.80;;;;;;10411253;28;20434;-64
2023/10/25 04:06:11;;;;;;;3.93;2.37;;;13.30;98.80;;;;;;10403388;28;20424;-64
2023/10/25 04:11:12;;;;;;;4.83;2.77;;;13.20;98.80;;;;;;10407055;28;20421;-65
2023/10/25 04:16:13;;;;;;;4.63;2.23;;;13.30;98.80;;;;;;10405896;28;20418;-68
2023/10/25 04:21:13;;;;;;;4.50;2.60;;;13.20;98.80;;;;;;10403857;28;20430;-65
2023/10/25 04:26:14;;;;;;;3.40;2.37;;;13.20;98.80;;;;;;10401287;28;20410;-65
2023/10/25 04:31:17;;;;;;;3.50;2.50;;;13.20;98.80;;;;;;10395138;28;20415;-65
2023/10/25 04:36:17;;;;;;;6.38;2.80;;;13.20;98.80;;;;;;10399951;28;20656;-64
2023/10/25 04:41:18;;;;;;;5.00;2.53;;;13.20;98.80;;;;;;10410260;28;20464;-64
2023/10/25 04:46:18;;;;;;;4.73;2.67;;;13.20;98.70;;;;;;10402087;28;20424;-65
2023/10/25 04:51:19;;;;;;;3.33;2.60;;;13.20;98.70;;;;;;10402949;28;20791;-67
2023/10/25 04:56:23;;;;;;;5.30;2.70;;;13.20;98.70;;;;;;10402235;28;20831;-65
2023/10/25 05:01:23;;;;;;;4.28;2.70;;;13.10;98.60;;;;;;10395673;28;20405;-65
2023/10/25 05:06:24;;;;;;;3.60;2.50;;;13.10;98.60;;;;;;10402393;28;20945;-64
2023/10/25 05:11:29;;;;;;;5.85;2.70;;;13.00;98.60;;;;;;10403917;28;20410;-65
2023/10/25 05:16:30;;;;;;;5.90;2.57;;;13.10;98.60;;;;;;10402475;28;20769;-64
2023/10/25 05:21:35;;;;;;;5.03;2.58;;;13.00;98.50;;;;;;10405817;28;20403;-64
2023/10/25 05:26:36;;;;;;;6.50;3.00;;;13.10;98.50;;;;;;10397430;28;20409;-64
2023/10/25 05:31:42;;;;;;;4.40;2.80;;;13.10;98.50;;;;;;10406969;28;20409;-65
2023/10/25 05:36:42;;;;;;;4.32;2.63;;;13.00;98.50;;;;;;10401410;28;20458;-64
2023/10/25 05:41:46;;;;;;;5.95;2.47;;;13.00;98.50;;;;;;10402374;28;20848;-64
2023/10/25 05:46:47;;;;;;;5.13;2.70;;;13.00;98.50;;;;;;10401200;28;20913;-64
2023/10/25 05:51:47;;;;;;;4.23;2.60;;;13.00;98.50;;;;;;10398851;28;20444;-64
2023/10/25 05:56:48;;;;;;;4.18;2.50;;;13.00;98.50;;;;;;10396400;28;20450;-62
2023/10/25 06:01:53;;;;;;;4.27;2.83;;;13.00;98.50;;;;;;10389489;28;20411;-64
2023/10/25 06:06:54;;;;;;;5.15;2.47;;;13.00;98.50;;;;;;10403221;28;20781;-64
2023/10/25 06:11:54;;;;;;;4.63;2.70;;;13.00;98.50;;;;;;10403952;28;20506;-64
2023/10/25 06:16:56;;;;;;;4.47;2.60;;;13.00;98.40;;;;;;10399903;28;20474;-64
2023/10/25 06:21:57;;;;;;;4.67;2.80;;;13.00;98.40;;;;;;10405620;28;20490;-64
2023/10/25 06:26:57;;;;;;;3.97;2.63;;;13.00;98.40;;;;;;10399552;28;20403;-64
2023/10/25 06:31:58;;;;;;;4.80;2.60;;;12.90;98.40;;;;;;10399700;28;20407;-64
2023/10/25 06:36:59;;;;;;;5.07;2.83;;;13.00;98.40;;;;;;10405252;28;20419;-62
2023/10/25 06:41:59;;;;;;;4.15;2.75;;;13.00;98.40;;;;;;10396971;28;20411;-63
2023/10/25 06:47:00;;;;;;;5.63;3.00;;;13.00;98.40;;;;;;10408086;28;20417;-64
2023/10/25 06:52:01;;;;;;;4.78;3.08;;;13.00;98.40;;;;;;10406888;28;20414;-63
2023/10/25 06:57:02;;;;;;;4.90;2.80;;;12.90;98.30;;;;;;10406975;28;20395;-63
2023/10/25 07:02:47;;;;;;;5.72;2.95;;;13.00;98.40;;;;;;10408553;28;20566;-63
2023/10/25 07:07:50;;;;;;;4.85;2.92;;;12.90;98.30;;;;;;10382090;28;20401;-65
2023/10/25 07:12:51;;;;;;;4.47;2.75;;;13.00;98.30;;;;;;10410668;28;20490;-64
2023/10/25 07:17:51;;;;;;;4.57;2.90;;;13.00;98.30;;;;;;10413191;28;20402;-64
2023/10/25 07:22:52;;;;;;;4.63;2.97;;;12.90;98.30;;;;;;10399173;28;20401;-63
2023/10/25 07:27:52;;;;;;;4.30;2.80;;;13.00;98.30;;;;;;10417168;28;20497;-64
2023/10/25 07:32:53;;;;;;;4.27;2.80;;;12.90;98.30;;;;;;10415724;28;20420;-64
2023/10/25 07:37:54;;;;;;;4.70;2.80;;;13.00;98.30;;;;;;10409954;28;20399;-64
2023/10/25 07:42:54;;;;;;;5.13;2.70;;;12.90;98.20;;;;;;10413504;28;20402;-64
2023/10/25 07:47:55;;;;;;;4.57;2.87;;;12.90;98.20;;;;;;10406811;28;20926;-64
2023/10/25 07:52:55;;;;;;;4.00;2.60;;;13.00;98.20;;;;;;10411881;28;20581;-64
2023/10/25 07:57:56;;;;;;;3.67;2.63;;;13.00;98.20;;;;;;10414641;28;20775;-65
2023/10/25 08:02:57;;;;;;;5.97;2.90;;;13.20;98.30;;;;;;10412338;28;20897;-64
2023/10/25 08:07:57;;;;;;;4.30;2.60;;;13.00;98.20;;;;;;10404884;28;20954;-63
2023/10/25 08:12:58;;;;;;;4.83;2.70;;;13.00;98.20;;;;;;10403869;28;20831;-64
2023/10/25 08:17:59;;;;;;;3.40;2.50;;;13.00;98.20;;;;;;10405847;28;20844;-64
2023/10/25 08:22:59;;;;;;;4.28;2.60;;;13.00;98.20;;;;;;10403268;28;20402;-64
2023/10/25 08:28:00;;;;;;;4.90;2.50;;;13.10;98.20;;;;;;10404752;28;20422;-64
2023/10/25 08:33:00;;;;;;;4.72;2.33;;;13.00;98.20;;;;;;10409174;28;20460;-63
2023/10/25 08:38:01;;;;;;;4.47;2.60;;;13.00;98.20;;;;;;10413768;28;20416;-64
2023/10/25 08:43:02;;;;;;;4.20;2.37;;;13.00;98.20;;;;;;10424293;28;20410;-64
2023/10/25 08:48:04;;;;;;;4.10;2.40;;;13.10;98.20;;;;;;10407283;28;20417;-63
2023/10/25 08:53:05;;;;;;;3.30;2.38;;;13.10;98.20;;;;;;10409868;28;20500;-63
2023/10/25 08:58:05;;;;;;;4.57;2.47;;;13.10;98.20;;;;;;10406841;28;20894;-63
2023/10/25 09:03:06;;;;;;;5.03;2.40;;;13.10;98.20;;;;;;10409129;28;20425;-64
2023/10/25 09:08:16;;;;;;;4.38;2.55;;;13.10;98.20;;;;;;10402881;28;20662;-64
2023/10/25 09:13:16;;;;;;;4.13;2.60;;;13.30;98.20;;;;;;10414732;28;20765;-64
2023/10/25 09:18:17;;;;;;;4.45;2.40;;;13.20;98.20;;;;;;10410055;28;20408;-64
2023/10/25 09:23:17;;;;;;;4.53;2.93;;;13.20;98.10;;;;;;10413701;28;20395;-63
2023/10/25 09:28:30;;;;;;;4.10;2.40;;;13.30;98.20;;;;;;10413731;28;20409;-64
2023/10/25 09:33:31;;;;;;;3.25;2.30;;;13.30;98.10;;;;;;10407126;28;20523;-64
2023/10/25 09:38:31;;;;;;;3.10;2.60;;;13.30;98.10;;;;;;10399263;28;20756;-64
2023/10/25 09:43:33;;;;;;;3.90;2.50;;;13.30;98.10;;;;;;10410635;28;20398;-64
2023/10/25 09:48:36;;;;;;;5.65;2.50;;;13.30;98.10;;;;;;10410441;28;20931;-65
2023/10/25 09:53:41;;;;;;;5.03;2.70;;;13.30;98.10;;;;;;10408489;28;20846;-65
2023/10/25 09:58:44;;;;;;;5.13;2.33;;;13.30;98.10;;;;;;10408668;28;20848;-65
2023/10/25 10:03:49;;;;;;;4.38;2.53;;;13.90;98.30;;;;;;10410491;28;20413;-64
2023/10/25 10:09:01;;;;;;;4.65;2.50;;;13.30;98.10;;;;;;10403829;28;20457;-65
2023/10/25 10:14:37;;;;;;;4.72;2.70;;;13.40;98.20;;;;;;10403063;28;20450;-64
2023/10/25 10:19:43;;;;;;;4.25;2.38;;;13.40;98.20;;;;;;10359071;28;20397;-65
2023/10/25 10:24:49;;;;;;;4.47;2.70;;;13.40;98.20;;;;;;10405548;28;20483;-64
2023/10/25 10:29:50;;;;;;;3.10;2.47;;;13.40;98.20;;;;;;10401349;28;20411;-63
2023/10/25 10:34:57;;;;;;;3.97;2.22;;;13.40;98.20;;;;;;10402458;28;20407;-63
2023/10/25 10:39:58;;;;;;;4.40;2.50;;;13.40;98.30;;;;;;10424285;28;20406;-65
2023/10/25 10:45:00;;;;;;;2.87;2.23;;;13.40;98.30;;;;;;10409555;28;20415;-65
2023/10/25 10:50:15;;;;;;;4.35;2.47;;;13.40;98.30;;;;;;10410750;28;20422;-64
2023/10/25 10:55:17;;;;;;;4.60;2.80;;;13.40;98.30;;;;;;10403587;28;20398;-63
2023/10/25 11:00:19;;;;;;;3.28;2.30;;;13.40;98.30;;;;;;10410495;28;20402;-64
2023/10/25 11:05:22;;;;;;;4.97;2.50;;;13.40;98.40;;;;;;10412703;28;20832;-63
2023/10/25 11:10:23;;;;;;;3.97;2.22;;;13.40;98.40;;;;;;10403287;28;21008;-64
2023/10/25 11:15:25;;;;;;;3.47;2.40;;;13.40;98.40;;;;;;10405003;28;20398;-65
2023/10/25 11:20:26;;;;;;;4.40;2.22;;;13.40;98.40;;;;;;10404235;28;20441;-64
2023/10/25 11:25:29;;;;;;;4.23;2.33;;;13.40;98.50;;;;;;10408002;28;20983;-64
2023/10/25 11:30:32;;;;;;;4.37;2.40;;;13.40;98.50;;;;;;10403931;28;20439;-64
2023/10/25 11:35:35;;;;;;;3.75;2.13;;;13.40;98.50;;;;;;10404821;28;20915;-64
2023/10/25 11:40:43;;;;;;;4.10;2.20;;;13.40;98.60;;;;;;10407474;28;20502;-65
2023/10/25 11:45:45;;;;;;;3.50;2.35;;;13.40;98.60;;;;;;10412556;28;20405;-63
2023/10/25 11:50:46;;;;;;;4.93;2.30;;;13.40;98.60;;;;;;10420473;28;20414;-63
2023/10/25 11:55:47;;;;;;;3.03;2.30;;;13.50;98.70;;;;;;10405710;28;20471;-63
2023/10/25 12:00:48;;;;;;;3.17;2.17;;;13.50;98.90;;;;;;10412607;28;20414;-64
2023/10/25 12:05:48;;;;;;;4.17;2.20;;;13.40;98.70;;;;;;10413721;28;21019;-64
2023/10/25 12:10:49;;;;;;;3.50;2.13;;;13.50;99.00;;;;;;10413687;28;20504;-64
2023/10/25 12:15:50;;;;;;;3.73;2.27;;;13.50;98.70;;;;;;10406300;28;20394;-64
2023/10/25 12:20:50;;;;;;;2.95;2.10;;;13.40;98.70;;;;;;10403621;28;20874;-63
2023/10/25 12:25:51;;;;;;;3.20;2.20;;;13.50;98.80;;;;;;10411034;28;20403;-64
2023/10/25 12:30:52;;;;;;;5.05;2.42;;;13.50;98.80;;;;;;10413494;28;20418;-65
2023/10/25 12:35:53;;;;;;;9.88;3.13;;;13.50;98.80;;;;;;10410512;28;20468;-65
2023/10/25 12:40:54;;;;;;;7.53;2.90;;;13.40;99.00;;;;;;10416548;28;20454;-66
2023/10/25 12:45:54;;;;;;;8.27;3.30;;;13.50;99.00;;;;;;10421228;28;20978;-64
2023/10/25 12:50:55;;;;;;;5.43;2.80;;;13.50;99.50;;;;;;10404042;28;20441;-64
2023/10/25 12:55:56;;;;;;;5.27;3.00;;;13.40;99.40;;;;;;10446894;28;20419;-65
2023/10/25 13:00:57;;;;;;;6.78;2.80;;;13.90;99.60;;;;;;10408079;28;20435;-68
2023/10/25 13:05:57;;;;;;;4.80;2.88;;;13.50;99.70;;;;;;10414425;28;20895;-66
2023/10/25 13:10:59;;;;;;;4.73;2.90;;;13.40;99.70;;;;;;10405705;28;20442;-66
2023/10/25 13:16:01;;;;;;;5.38;2.80;;;13.50;99.80;;;;;;10400222;28;20392;-67
2023/10/25 13:21:02;;;;;;;4.60;2.78;;;13.50;99.90;;;;;;10410261;28;20513;-67
2023/10/25 13:26:02;;;;;;;6.13;2.93;;;13.50;99.90;;;;;;10405510;28;20496;-66
2023/10/25 13:31:03;;;;;;;5.13;2.75;;;13.50;99.90;;;;;;10412849;28;20473;-66
2023/10/25 13:36:04;;;;;;;4.40;2.70;;;13.50;99.90;;;;;;10409890;28;20404;-67
2023/10/25 13:41:04;;;;;;;5.00;2.90;;;13.50;99.90;;;;;;10410117;28;20407;-66
2023/10/25 13:46:08;;;;;;;3.73;2.60;;;13.50;99.90;;;;;;10411768;28;20464;-65
2023/10/25 13:51:09;;;;;;;4.40;2.60;;;13.50;99.90;;;;;;10413043;28;20417;-66
2023/10/25 13:56:18;;;;;;;5.28;2.90;;;13.50;99.90;;;;;;10408470;28;20407;-66
2023/10/25 14:01:19;;;;;;;10.23;3.00;;;13.50;99.90;;;;;;10408549;28;20942;-66
2023/10/25 14:06:19;;;;;;;5.17;2.80;;;13.50;99.90;;;;;;10409954;28;20401;-66
2023/10/25 14:11:20;;;;;;;7.20;3.13;;;13.50;99.90;;;;;;10410165;28;20411;-66
2023/10/25 14:16:21;;;;;;;5.97;3.30;;;13.50;99.90;;;;;;10409328;28;20443;-66
2023/10/25 14:21:23;;;;;;;6.07;2.83;;;13.50;99.90;;;;;;10411111;28;20833;-67
2023/10/25 14:26:24;;;;;;;6.22;2.85;;;13.50;99.90;;;;;;10408898;28;20414;-65
2023/10/25 14:31:25;;;;;;;5.70;2.97;;;13.50;99.90;;;;;;10408174;28;20474;-64
2023/10/25 14:36:25;;;;;;;4.80;2.60;;;13.50;99.90;;;;;;10403165;28;20407;-65
2023/10/25 14:41:27;;;;;;;4.28;2.55;;;13.60;99.90;;;;;;10403537;28;20407;-64
2023/10/25 14:46:28;;;;;;;7.97;3.00;;;13.60;99.90;;;;;;10402684;28;20975;-63
2023/10/25 14:51:28;;;;;;;4.85;2.45;;;13.60;99.90;;;;;;10404758;28;20414;-65
2023/10/25 14:56:29;;;;;;;5.60;2.80;;;13.60;99.90;;;;;;10413481;28;20399;-74
2023/10/25 15:01:30;;;;;;;4.30;2.70;;;13.90;99.90;;;;;;10445716;28;20409;-65
2023/10/25 15:06:30;;;;;;;3.85;2.35;;;13.60;99.90;;;;;;10405590;28;20416;-66
2023/10/25 15:11:31;;;;;;;4.23;3.00;;;13.60;99.90;;;;;;10409306;28;20410;-65
2023/10/25 15:16:34;;;;;;;4.07;2.40;;;13.70;99.90;;;;;;10418341;28;20407;-66
2023/10/25 15:21:34;;;;;;;5.55;2.20;;;13.70;99.90;;;;;;10424913;28;20502;-67
2023/10/25 15:26:35;;;;;;;5.37;2.20;;;13.60;99.90;;;;;;10413697;28;20640;-66
2023/10/25 15:31:35;;;;;;;4.23;2.13;;;13.60;99.90;;;;;;10403323;28;20420;-66
2023/10/25 15:36:36;;;;;;;3.20;2.15;;;13.70;99.90;;;;;;10399793;28;20407;-65
2023/10/25 15:41:37;;;;;;;3.43;2.00;;;13.70;99.90;;;;;;10414070;28;20947;-66
2023/10/25 15:46:37;;;;;;;3.70;2.10;;;13.60;99.90;;;;;;10402801;28;20914;-65
2023/10/25 15:51:38;;;;;;;3.20;2.17;;;13.60;99.90;;;;;;10413398;28;20491;-66
2023/10/25 15:56:39;;;;;;;5.00;2.00;;;13.90;99.90;;;;;;10408936;28;20552;-67
2023/10/25 16:01:39;;;;;;;5.10;2.42;;;13.60;99.90;;;;;;10403147;28;20426;-66
2023/10/25 16:06:40;;;;;;;5.07;2.40;;;13.60;99.90;;;;;;10404306;28;20511;-66
2023/10/25 16:11:41;;;;;;;7.47;3.40;;;13.90;99.90;;;;;;10433866;28;20419;-66
2023/10/25 16:16:41;;;;;;;6.78;3.78;;;13.60;99.90;;;;;;10398209;28;20942;-66
2023/10/25 16:21:43;;;;;;;8.53;3.70;;;13.60;99.90;;;;;;10398873;28;20555;-66
2023/10/25 16:26:44;;;;;;;8.27;3.53;;;13.60;99.90;;;;;;10439783;28;20424;-65
2023/10/25 16:31:45;;;;;;;9.07;3.90;;;13.60;99.90;;;;;;10401514;28;20414;-66
2023/10/25 16:36:47;;;;;;;8.40;3.00;;;13.60;99.90;;;;;;10399953;28;20399;-67
2023/10/25 16:41:47;;;;;;;6.63;3.13;;;13.70;99.90;;;;;;10397780;28;20406;-65
2023/10/25 16:46:48;;;;;;;4.65;2.75;;;13.60;99.90;;;;;;10395845;28;20420;-66
2023/10/25 16:51:48;;;;;;;6.43;3.00;;;13.70;99.90;;;;;;10401581;28;20407;-65
2023/10/25 16:56:49;;;;;;;6.80;2.83;;;13.70;99.90;;;;;;10404045;28;20802;-67
2023/10/25 17:01:50;;;;;;;7.53;3.37;;;13.70;99.90;;;;;;10406750;28;20907;-66
2023/10/25 17:06:50;;;;;;;6.57;3.08;;;13.60;99.90;;;;;;10401861;28;20950;-66
2023/10/25 17:11:51;;;;;;;6.53;3.23;;;13.70;99.90;;;;;;10407594;28;20940;-66
2023/10/25 17:16:51;;;;;;;5.60;3.00;;;13.70;99.90;;;;;;10399000;28;20487;-65
2023/10/25 17:21:52;;;;;;;6.50;3.00;;;14.20;99.90;;;;;;10399201;28;20471;-65
2023/10/25 17:26:53;;;;;;;7.30;3.10;;;13.70;99.90;;;;;;10401486;28;20419;-65
2023/10/25 17:31:53;;;;;;;5.78;2.95;;;13.80;99.90;;;;;;10398898;28;20415;-67
2023/10/25 17:36:56;;;;;;;5.50;2.80;;;13.80;99.90;;;;;;10398000;28;20472;-65
2023/10/25 17:41:57;;;;;;;5.40;2.87;;;13.80;99.90;;;;;;10406551;28;20495;-66
2023/10/25 17:46:57;;;;;;;5.20;2.97;;;13.80;99.90;;;;;;10397281;28;20495;-65
2023/10/25 17:51:59;;;;;;;4.27;2.60;;;13.70;99.90;;;;;;10400310;28;20775;-66
2023/10/25 17:57:00;;;;;;;4.75;2.70;;;13.70;99.90;;;;;;10394122;28;20831;-65
2023/10/25 18:02:00;;;;;;;5.17;2.80;;;13.70;99.90;;;;;;10400528;28;20406;-66
2023/10/25 18:07:01;;;;;;;5.93;3.10;;;13.70;99.90;;;;;;10397992;28;20402;-66
2023/10/25 18:12:02;;;;;;;5.38;2.60;;;13.70;99.90;;;;;;10395032;28;20919;-66
2023/10/25 18:17:04;;;;;;;5.20;2.90;;;13.70;99.90;;;;;;10394336;28;20397;-67
2023/10/25 18:22:05;;;;;;;3.95;2.35;;;13.70;99.90;;;;;;10397744;28;20668;-67
2023/10/25 18:27:06;;;;;;;4.93;2.70;;;13.70;99.90;;;;;;10395771;28;20393;-66
2023/10/25 18:32:07;;;;;;;4.87;2.67;;;13.70;99.90;;;;;;10400179;28;20412;-65
2023/10/25 18:37:07;;;;;;;4.53;3.05;;;13.70;99.90;;;;;;10396848;28;20403;-67
2023/10/25 18:42:08;;;;;;;4.37;2.53;;;13.70;99.90;;;;;;10403161;28;20457;-66
2023/10/25 18:47:09;;;;;;;4.55;2.85;;;13.70;99.90;;;;;;10402831;28;21015;-66
2023/10/25 18:52:10;;;;;;;4.87;2.80;;;13.60;99.90;;;;;;10403731;28;20492;-66
2023/10/25 18:57:10;;;;;;;4.35;2.78;;;13.60;99.90;;;;;;10410083;28;20393;-66
2023/10/25 19:02:11;;;;;;;4.70;2.70;;;13.70;99.90;;;;;;10413644;28;20409;-65
2023/10/25 19:07:11;;;;;;;4.37;2.70;;;13.70;99.90;;;;;;10414230;28;20414;-66
2023/10/25 19:12:14;;;;;;;4.72;2.78;;;13.60;99.90;;;;;;10415217;28;20416;-66
2023/10/25 19:17:15;;;;;;;4.72;2.90;;;13.60;99.90;;;;;;10405803;28;20427;-66
2023/10/25 19:22:17;;;;;;;4.37;2.77;;;13.60;99.90;;;;;;10410881;28;20561;-66
2023/10/25 19:27:19;;;;;;;4.88;2.80;;;13.60;99.90;;;;;;10398742;28;20413;-66
2023/10/25 19:32:19;;;;;;;3.97;2.70;;;13.60;99.90;;;;;;10406464;28;20414;-67
2023/10/25 19:37:20;;;;;;;3.93;2.87;;;14.10;99.90;;;;;;10406835;28;20929;-66
2023/10/25 19:42:20;;;;;;;3.15;2.65;;;13.60;99.90;;;;;;10411504;28;20448;-65
2023/10/25 19:47:21;;;;;;;4.33;2.80;;;13.60;99.90;;;;;;10409028;28;20953;-66
2023/10/25 19:52:22;;;;;;;4.47;3.00;;;13.60;99.90;;;;;;10410723;28;20907;-66
2023/10/25 19:57:22;;;;;;;4.13;2.90;;;13.60;99.90;;;;;;10413785;28;20415;-65
2023/10/25 20:02:23;;;;;;;3.50;2.80;;;13.60;99.90;;;;;;10407511;28;20832;-66
2023/10/25 20:07:23;;;;;;;3.70;2.80;;;13.60;99.90;;;;;;10411080;28;20905;-66
2023/10/25 20:12:25;;;;;;;3.67;2.90;;;13.60;99.90;;;;;;10402186;28;20441;-65
2023/10/25 20:17:26;;;;;;;4.30;3.03;;;13.60;99.90;;;;;;10412930;28;20397;-65
2023/10/25 20:22:26;;;;;;;4.05;3.03;;;13.60;99.90;;;;;;10410203;28;20407;-66
2023/10/25 20:27:31;;;;;;;4.17;2.83;;;13.80;99.90;;;;;;10404683;28;20693;-66
2023/10/25 20:32:31;;;;;;;4.15;3.20;;;13.60;99.90;;;;;;10400455;28;21061;-66
2023/10/25 20:37:32;;;;;;;3.10;2.80;;;13.60;99.90;;;;;;10402140;28;20403;-65
2023/10/25 20:42:33;;;;;;;4.03;2.95;;;13.60;99.90;;;;;;10405210;28;20506;-66
2023/10/25 20:47:33;;;;;;;4.83;3.20;;;13.60;99.90;;;;;;10409287;28;20430;-67
2023/10/25 20:52:34;;;;;;;4.30;3.30;;;13.60;99.90;;;;;;10406015;28;20415;-65
2023/10/25 20:57:35;;;;;;;4.43;3.33;;;13.60;99.90;;;;;;10403519;28;20407;-67
2023/10/25 21:02:36;;;;;;;4.73;3.27;;;13.60;99.90;;;;;;10401974;28;20530;-65
2023/10/25 21:07:37;;;;;;;4.38;3.25;;;13.60;99.90;;;;;;10404871;28;20419;-66
2023/10/25 21:12:37;;;;;;;4.17;3.20;;;13.60;99.90;;;;;;10404469;28;20418;-66
2023/10/25 21:17:38;;;;;;;6.30;3.60;;;13.60;99.90;;;;;;10416782;28;20406;-66
2023/10/25 21:22:39;;;;;;;5.90;3.75;;;13.60;99.90;;;;;;10400581;28;20906;-65
2023/10/25 21:27:40;;;;;;;5.40;4.03;;;13.60;99.90;;;;;;10403652;28;20414;-66
2023/10/25 21:32:40;;;;;;;4.25;3.70;;;13.60;99.90;;;;;;10395613;28;20396;-66
2023/10/25 21:37:41;;;;;;;4.90;3.60;;;13.60;99.90;;;;;;10407972;28;20394;-65
2023/10/25 21:42:41;;;;;;;5.70;4.03;;;13.60;99.90;;;;;;10403305;28;20411;-66
2023/10/25 21:47:42;;;;;;;4.40;3.80;;;13.60;99.90;;;;;;10405868;28;20841;-67
2023/10/25 21:52:43;;;;;;;4.63;3.53;;;13.60;99.90;;;;;;10406666;28;20912;-65
2023/10/25 21:57:44;;;;;;;5.57;3.87;;;13.60;99.90;;;;;;10406710;28;20393;-67
2023/10/25 22:02:45;;;;;;;5.20;4.13;;;13.60;99.90;;;;;;10403370;28;20467;-67
2023/10/25 22:07:46;;;;;;;4.20;3.60;;;13.60;99.90;;;;;;10397632;28;20619;-67
2023/10/25 22:12:47;;;;;;;5.93;4.13;;;13.60;99.90;;;;;;10399522;28;20771;-66
2023/10/25 22:17:47;;;;;;;6.47;4.00;;;13.60;99.90;;;;;;10401700;28;20501;-66
2023/10/25 22:22:48;;;;;;;5.05;4.00;;;13.60;99.90;;;;;;10406861;28;20415;-65
2023/10/25 22:27:49;;;;;;;5.10;3.90;;;13.60;99.90;;;;;;10398307;28;20469;-66
2023/10/25 22:32:49;;;;;;;5.10;4.00;;;13.60;99.90;;;;;;10406406;28;20437;-67
2023/10/25 22:37:50;;;;;;;6.53;4.30;;;13.60;99.90;;;;;;10409981;28;20394;-66
2023/10/25 22:42:51;;;;;;;5.32;4.10;;;13.60;99.90;;;;;;10409189;28;20437;-67
2023/10/25 22:47:52;;;;;;;5.73;4.10;;;13.60;99.90;;;;;;10405165;28;20966;-67
2023/10/25 22:52:52;;;;;;;5.23;4.13;;;13.60;99.90;;;;;;10398677;28;20413;-66
2023/10/25 22:57:53;;;;;;;6.37;4.40;;;13.60;99.90;;;;;;10402148;28;20734;-66
2023/10/25 23:02:53;;;;;;;4.97;4.07;;;13.60;99.90;;;;;;10403396;28;20400;-66
2023/10/25 23:07:54;;;;;;;6.20;4.20;;;13.60;99.90;;;;;;10404833;28;20427;-65
2023/10/25 23:12:54;;;;;;;5.70;4.40;;;13.60;99.90;;;;;;10401083;28;20981;-67
2023/10/25 23:17:55;;;;;;;5.83;4.33;;;13.60;99.90;;;;;;10402828;28;20399;-65
2023/10/25 23:22:56;;;;;;;4.97;3.70;;;13.60;99.90;;;;;;10401675;28;20407;-65
2023/10/25 23:27:56;;;;;;;5.40;4.00;;;13.60;99.90;;;;;;10395964;28;20395;-67
2023/10/25 23:32:57;;;;;;;5.30;4.00;;;13.60;99.90;;;;;;10403488;28;20502;-67
2023/10/25 23:37:58;;;;;;;5.27;4.00;;;13.60;99.90;;;;;;10397336;28;20409;-67
2023/10/25 23:42:58;;;;;;;5.63;4.43;;;13.60;99.90;;;;;;10406244;28;20406;-66
2023/10/25 23:47:59;;;;;;;5.82;4.20;;;13.60;99.90;;;;;;10398646;28;20454;-66
2023/10/25 23:52:59;;;;;;;5.77;4.00;;;13.60;99.90;;;;;;10404370;28;20525;-66
2023/10/25 23:58:00;;;;;;;5.50;4.10;;;13.60;99.90;;;;;;10406223;28;20462;-66
